Terminal Aerodrome Forecast
Issued by NWS Boston, MA

Home | Current Version | Previous Version | Text Only | Print | Product List | Glossary On
Versions: 1 2 3 4 5 6 7 8 9 10 11 12 13 14 15 16 17 18 19 20 21 22 23 24 25 26 27 28 29 30 31 32 33 34 35 36 37 38 39 40 41 42 43 44 45 46 47 48 49 50
000
FTUS41 KBOX 022334
TAFBDL
TAF
KBDL 022334Z 0300/0406 28008KT P6SM FEW050 BKN080
     FM031000 30007KT P6SM SCT100 BKN250
     FM031500 31011G22KT P6SM SCT040 SCT250
     FM040200 31007KT P6SM SCT250=

USA.gov is the U.S. government's official web portal to all federal, state and local government web resources and services.